sensor_id;sensor_type;location;lat;lon;timestamp;pressure;altitude;pressure_sealevel;temperature;humidity
18850;BME280;4989;48.772;9.154;2022-07-25T00:03:25;97772.59;;;27.01;61.35
18850;BME280;4989;48.772;9.154;2022-07-25T00:08:29;97759.88;;;26.66;63.09
18850;BME280;4989;48.772;9.154;2022-07-25T00:13:32;97760.00;;;27.08;64.33
18850;BME280;4989;48.772;9.154;2022-07-25T00:18:35;97760.16;;;27.15;65.18
18850;BME280;4989;48.772;9.154;2022-07-25T00:23:37;97757.22;;;27.21;63.92
18850;BME280;4989;48.772;9.154;2022-07-25T00:28:40;97758.31;;;27.18;63.20
18850;BME280;4989;48.772;9.154;2022-07-25T00:33:42;97756.06;;;26.90;62.62
18850;BME280;4989;48.772;9.154;2022-07-25T00:38:45;97756.19;;;26.98;65.48
18850;BME280;4989;48.772;9.154;2022-07-25T00:43:47;97763.69;;;27.03;63.74
18850;BME280;4989;48.772;9.154;2022-07-25T00:48:49;97763.34;;;27.06;63.89
18850;BME280;4989;48.772;9.154;2022-07-25T00:53:52;97756.50;;;26.94;64.52
18850;BME280;4989;48.772;9.154;2022-07-25T00:58:55;97761.13;;;26.38;63.26
18850;BME280;4989;48.772;9.154;2022-07-25T01:03:58;97745.31;;;25.69;66.40
18850;BME280;4989;48.772;9.154;2022-07-25T01:09:01;97747.56;;;25.89;65.48
18850;BME280;4989;48.772;9.154;2022-07-25T01:14:04;97755.13;;;26.21;68.41
18850;BME280;4989;48.772;9.154;2022-07-25T01:19:08;97754.09;;;26.64;66.63
18850;BME280;4989;48.772;9.154;2022-07-25T01:24:11;97755.56;;;26.65;62.68
18850;BME280;4989;48.772;9.154;2022-07-25T01:29:14;97735.50;;;26.40;67.18
18850;BME280;4989;48.772;9.154;2022-07-25T01:34:16;97731.75;;;26.37;67.03
18850;BME280;4989;48.772;9.154;2022-07-25T01:39:19;97732.59;;;26.06;67.41
18850;BME280;4989;48.772;9.154;2022-07-25T01:44:21;97723.16;;;26.35;64.53
18850;BME280;4989;48.772;9.154;2022-07-25T01:49:24;97720.84;;;26.66;65.60
18850;BME280;4989;48.772;9.154;2022-07-25T01:54:27;97718.56;;;26.64;67.22
18850;BME280;4989;48.772;9.154;2022-07-25T01:59:30;97721.91;;;26.63;65.70
18850;BME280;4989;48.772;9.154;2022-07-25T02:04:33;97710.84;;;26.70;66.42
18850;BME280;4989;48.772;9.154;2022-07-25T02:09:36;97710.97;;;26.52;65.74
18850;BME280;4989;48.772;9.154;2022-07-25T02:14:39;97705.06;;;26.28;64.61
18850;BME280;4989;48.772;9.154;2022-07-25T02:19:42;97704.09;;;26.39;67.71
18850;BME280;4989;48.772;9.154;2022-07-25T02:24:44;97699.81;;;26.25;60.74
18850;BME280;4989;48.772;9.154;2022-07-25T02:29:47;97690.47;;;25.96;58.22
18850;BME280;4989;48.772;9.154;2022-07-25T02:34:49;97689.34;;;25.72;58.32
18850;BME280;4989;48.772;9.154;2022-07-25T02:39:52;97685.13;;;25.52;58.43
18850;BME280;4989;48.772;9.154;2022-07-25T02:44:54;97683.53;;;25.57;58.76
18850;BME280;4989;48.772;9.154;2022-07-25T02:49:57;97684.38;;;25.84;61.29
18850;BME280;4989;48.772;9.154;2022-07-25T02:54:59;97679.00;;;26.26;66.59
18850;BME280;4989;48.772;9.154;2022-07-25T03:00:07;97682.63;;;26.47;64.57
18850;BME280;4989;48.772;9.154;2022-07-25T03:05:11;97681.88;;;26.47;64.72
18850;BME280;4989;48.772;9.154;2022-07-25T03:10:14;97691.88;;;26.16;63.17
18850;BME280;4989;48.772;9.154;2022-07-25T03:15:17;97686.84;;;25.69;59.95
18850;BME280;4989;48.772;9.154;2022-07-25T03:20:19;97682.22;;;25.45;59.18
18850;BME280;4989;48.772;9.154;2022-07-25T03:25:22;97670.88;;;25.56;59.17
18850;BME280;4989;48.772;9.154;2022-07-25T03:30:24;97667.75;;;25.46;59.09
18850;BME280;4989;48.772;9.154;2022-07-25T03:35:26;97654.66;;;25.28;59.65
18850;BME280;4989;48.772;9.154;2022-07-25T03:40:29;97651.47;;;25.50;59.80
18850;BME280;4989;48.772;9.154;2022-07-25T03:45:32;97650.97;;;25.52;59.66
18850;BME280;4989;48.772;9.154;2022-07-25T03:50:35;97644.28;;;25.42;59.91
18850;BME280;4989;48.772;9.154;2022-07-25T03:55:38;97642.03;;;25.27;60.15
18850;BME280;4989;48.772;9.154;2022-07-25T04:00:41;97636.66;;;25.29;60.76
18850;BME280;4989;48.772;9.154;2022-07-25T04:05:43;97628.16;;;24.89;62.66
18850;BME280;4989;48.772;9.154;2022-07-25T04:10:48;97630.75;;;25.00;62.36
18850;BME280;4989;48.772;9.154;2022-07-25T04:15:51;97630.66;;;25.25;61.08
18850;BME280;4989;48.772;9.154;2022-07-25T04:20:54;97625.13;;;24.87;62.53
18850;BME280;4989;48.772;9.154;2022-07-25T04:25:57;97628.31;;;24.78;63.32
18850;BME280;4989;48.772;9.154;2022-07-25T04:30:59;97626.78;;;24.39;64.52
18850;BME280;4989;48.772;9.154;2022-07-25T04:36:02;97621.25;;;24.39;65.27
18850;BME280;4989;48.772;9.154;2022-07-25T04:41:05;97621.81;;;24.32;65.26
18850;BME280;4989;48.772;9.154;2022-07-25T04:46:08;97628.47;;;24.04;66.76
18850;BME280;4989;48.772;9.154;2022-07-25T04:51:11;97637.38;;;23.97;66.92
18850;BME280;4989;48.772;9.154;2022-07-25T04:56:13;97621.38;;;24.28;66.25
18850;BME280;4989;48.772;9.154;2022-07-25T05:01:16;97618.13;;;24.48;65.79
18850;BME280;4989;48.772;9.154;2022-07-25T05:06:18;97612.19;;;25.08;63.81
18850;BME280;4989;48.772;9.154;2022-07-25T05:11:21;97614.72;;;25.25;63.53
18850;BME280;4989;48.772;9.154;2022-07-25T05:16:23;97615.34;;;25.64;63.23
18850;BME280;4989;48.772;9.154;2022-07-25T05:21:25;97612.38;;;25.88;61.14
18850;BME280;4989;48.772;9.154;2022-07-25T05:26:28;97614.94;;;26.13;61.28
18850;BME280;4989;48.772;9.154;2022-07-25T05:31:30;97607.53;;;26.15;59.63
18850;BME280;4989;48.772;9.154;2022-07-25T05:36:32;97607.88;;;26.12;59.86
18850;BME280;4989;48.772;9.154;2022-07-25T05:41:35;97594.78;;;25.67;60.98
18850;BME280;4989;48.772;9.154;2022-07-25T05:46:37;97599.66;;;25.34;63.41
18850;BME280;4989;48.772;9.154;2022-07-25T05:51:39;97591.22;;;25.53;62.69
18850;BME280;4989;48.772;9.154;2022-07-25T05:56:41;97594.09;;;25.34;63.14
18850;BME280;4989;48.772;9.154;2022-07-25T06:01:43;97589.41;;;25.42;63.38
18850;BME280;4989;48.772;9.154;2022-07-25T06:06:45;97586.53;;;25.48;62.77
18850;BME280;4989;48.772;9.154;2022-07-25T06:11:53;97583.41;;;25.51;63.18
18850;BME280;4989;48.772;9.154;2022-07-25T06:17:02;97578.91;;;25.62;61.28
18850;BME280;4989;48.772;9.154;2022-07-25T06:22:05;97562.88;;;25.81;60.96
18850;BME280;4989;48.772;9.154;2022-07-25T06:27:09;97561.97;;;26.26;59.68
18850;BME280;4989;48.772;9.154;2022-07-25T06:32:11;97559.34;;;26.55;59.15
18850;BME280;4989;48.772;9.154;2022-07-25T06:37:14;97557.59;;;26.65;57.62
18850;BME280;4989;48.772;9.154;2022-07-25T06:42:17;97554.50;;;26.55;58.01
18850;BME280;4989;48.772;9.154;2022-07-25T06:47:20;97560.34;;;26.78;56.43
18850;BME280;4989;48.772;9.154;2022-07-25T06:52:22;97560.13;;;26.97;56.77
18850;BME280;4989;48.772;9.154;2022-07-25T06:57:25;97561.16;;;27.28;55.32
18850;BME280;4989;48.772;9.154;2022-07-25T07:02:27;97551.84;;;27.83;55.03
18850;BME280;4989;48.772;9.154;2022-07-25T07:07:30;97557.50;;;27.91;54.83
18850;BME280;4989;48.772;9.154;2022-07-25T07:12:32;97559.09;;;28.22;54.19
18850;BME280;4989;48.772;9.154;2022-07-25T07:17:36;97546.91;;;28.41;53.89
18850;BME280;4989;48.772;9.154;2022-07-25T07:22:46;97548.50;;;28.88;53.97
18850;BME280;4989;48.772;9.154;2022-07-25T07:27:50;97550.97;;;29.14;53.16
18850;BME280;4989;48.772;9.154;2022-07-25T07:32:52;97556.00;;;29.24;53.30
18850;BME280;4989;48.772;9.154;2022-07-25T07:37:55;97539.50;;;29.74;52.22
18850;BME280;4989;48.772;9.154;2022-07-25T07:42:58;97528.78;;;29.95;51.51
18850;BME280;4989;48.772;9.154;2022-07-25T07:48:04;97536.38;;;30.18;51.53
18850;BME280;4989;48.772;9.154;2022-07-25T07:53:07;97527.53;;;30.94;50.01
18850;BME280;4989;48.772;9.154;2022-07-25T07:58:15;97531.44;;;30.99;49.59
18850;BME280;4989;48.772;9.154;2022-07-25T08:03:19;97531.91;;;31.73;48.41
18850;BME280;4989;48.772;9.154;2022-07-25T08:08:23;97521.34;;;32.25;47.19
18850;BME280;4989;48.772;9.154;2022-07-25T08:13:32;97522.94;;;32.63;45.88
18850;BME280;4989;48.772;9.154;2022-07-25T08:18:39;97524.03;;;33.14;44.89
18850;BME280;4989;48.772;9.154;2022-07-25T08:23:42;97534.72;;;33.25;44.33
18850;BME280;4989;48.772;9.154;2022-07-25T08:28:47;97517.25;;;33.37;43.99
18850;BME280;4989;48.772;9.154;2022-07-25T08:34:10;97527.53;;;33.61;43.90
18850;BME280;4989;48.772;9.154;2022-07-25T08:39:12;97531.00;;;34.08;42.46
18850;BME280;4989;48.772;9.154;2022-07-25T08:44:16;97524.94;;;33.26;41.37
18850;BME280;4989;48.772;9.154;2022-07-25T08:49:20;97527.00;;;34.72;38.51
18850;BME280;4989;48.772;9.154;2022-07-25T08:54:23;97531.78;;;35.31;37.09
18850;BME280;4989;48.772;9.154;2022-07-25T08:59:26;97527.47;;;35.30;36.92
18850;BME280;4989;48.772;9.154;2022-07-25T09:04:29;97515.75;;;35.46;36.86
18850;BME280;4989;48.772;9.154;2022-07-25T09:09:33;97514.78;;;36.17;34.89
18850;BME280;4989;48.772;9.154;2022-07-25T09:14:43;97512.66;;;36.18;35.71
18850;BME280;4989;48.772;9.154;2022-07-25T09:19:53;97509.53;;;36.47;35.66
18850;BME280;4989;48.772;9.154;2022-07-25T09:24:56;97505.06;;;35.23;40.01
18850;BME280;4989;48.772;9.154;2022-07-25T09:29:58;97493.72;;;33.71;42.71
18850;BME280;4989;48.772;9.154;2022-07-25T09:35:01;97504.59;;;34.95;41.01
18850;BME280;4989;48.772;9.154;2022-07-25T09:40:12;97500.50;;;36.27;35.53
18850;BME280;4989;48.772;9.154;2022-07-25T09:45:20;97501.22;;;36.84;37.17
18850;BME280;4989;48.772;9.154;2022-07-25T09:50:25;97490.13;;;35.32;39.86
18850;BME280;4989;48.772;9.154;2022-07-25T09:55:29;97494.28;;;36.64;37.46
18850;BME280;4989;48.772;9.154;2022-07-25T10:00:32;97482.66;;;36.36;38.02
18850;BME280;4989;48.772;9.154;2022-07-25T10:10:57;97473.84;;;37.99;36.15
18850;BME280;4989;48.772;9.154;2022-07-25T10:16:01;97476.97;;;38.56;33.08
18850;BME280;4989;48.772;9.154;2022-07-25T10:21:11;97469.75;;;38.94;34.89
18850;BME280;4989;48.772;9.154;2022-07-25T10:26:28;97472.75;;;39.12;34.08
18850;BME280;4989;48.772;9.154;2022-07-25T10:36:42;97450.97;;;40.20;32.94
18850;BME280;4989;48.772;9.154;2022-07-25T10:41:53;97445.19;;;41.49;31.42
18850;BME280;4989;48.772;9.154;2022-07-25T10:47:08;97438.03;;;41.14;32.20
18850;BME280;4989;48.772;9.154;2022-07-25T10:52:16;97431.81;;;41.02;31.61
18850;BME280;4989;48.772;9.154;2022-07-25T10:57:19;97427.47;;;42.06;31.01
18850;BME280;4989;48.772;9.154;2022-07-25T11:02:23;97429.13;;;39.22;33.51
18850;BME280;4989;48.772;9.154;2022-07-25T11:07:26;97426.09;;;41.02;31.66
18850;BME280;4989;48.772;9.154;2022-07-25T11:12:30;97422.28;;;38.30;34.20
18850;BME280;4989;48.772;9.154;2022-07-25T11:17:33;97406.84;;;37.68;32.76
18850;BME280;4989;48.772;9.154;2022-07-25T11:22:36;97407.97;;;41.11;29.66
18850;BME280;4989;48.772;9.154;2022-07-25T11:27:38;97396.44;;;40.59;31.94
18850;BME280;4989;48.772;9.154;2022-07-25T11:32:49;97392.81;;;41.78;30.56
18850;BME280;4989;48.772;9.154;2022-07-25T11:37:53;97394.00;;;38.46;33.85
18850;BME280;4989;48.772;9.154;2022-07-25T11:42:56;97394.41;;;37.24;35.69
18850;BME280;4989;48.772;9.154;2022-07-25T11:48:04;97392.63;;;43.09;27.51
18850;BME280;4989;48.772;9.154;2022-07-25T11:53:11;97370.66;;;43.84;26.17
18850;BME280;4989;48.772;9.154;2022-07-25T11:58:17;97375.00;;;42.97;24.94
18850;BME280;4989;48.772;9.154;2022-07-25T12:03:19;97374.34;;;43.18;24.77
18850;BME280;4989;48.772;9.154;2022-07-25T12:08:22;97389.44;;;42.79;24.05
18850;BME280;4989;48.772;9.154;2022-07-25T12:13:28;97367.28;;;38.92;26.65
18850;BME280;4989;48.772;9.154;2022-07-25T12:18:31;97359.91;;;39.60;26.89
18850;BME280;4989;48.772;9.154;2022-07-25T12:29:44;97372.41;;;37.88;33.74
18850;BME280;4989;48.772;9.154;2022-07-25T12:34:47;97356.38;;;36.31;36.16
18850;BME280;4989;48.772;9.154;2022-07-25T12:39:50;97368.16;;;36.16;37.25
18850;BME280;4989;48.772;9.154;2022-07-25T12:44:53;97362.69;;;35.18;38.96
18850;BME280;4989;48.772;9.154;2022-07-25T12:49:56;97351.94;;;34.83;40.06
18850;BME280;4989;48.772;9.154;2022-07-25T12:54:58;97356.72;;;34.59;40.25
18850;BME280;4989;48.772;9.154;2022-07-25T13:00:03;97361.00;;;34.60;39.96
18850;BME280;4989;48.772;9.154;2022-07-25T13:05:06;97349.47;;;34.78;39.79
18850;BME280;4989;48.772;9.154;2022-07-25T13:10:09;97365.22;;;37.98;35.32
18850;BME280;4989;48.772;9.154;2022-07-25T13:15:11;97346.41;;;41.41;30.86
18850;BME280;4989;48.772;9.154;2022-07-25T13:20:14;97342.97;;;40.42;31.39
18850;BME280;4989;48.772;9.154;2022-07-25T13:25:17;97354.66;;;37.87;31.25
18850;BME280;4989;48.772;9.154;2022-07-25T13:30:19;97342.00;;;37.76;34.91
18850;BME280;4989;48.772;9.154;2022-07-25T13:35:23;97356.47;;;37.94;33.89
18850;BME280;4989;48.772;9.154;2022-07-25T13:40:37;97351.53;;;37.18;30.96
18850;BME280;4989;48.772;9.154;2022-07-25T13:45:43;97344.94;;;37.02;33.04
18850;BME280;4989;48.772;9.154;2022-07-25T13:50:45;97349.84;;;37.64;32.67
18850;BME280;4989;48.772;9.154;2022-07-25T13:55:48;97340.38;;;36.97;33.46
18850;BME280;4989;48.772;9.154;2022-07-25T14:00:51;97336.41;;;36.06;34.23
18850;BME280;4989;48.772;9.154;2022-07-25T14:05:54;97346.66;;;35.66;34.63
18850;BME280;4989;48.772;9.154;2022-07-25T14:10:56;97346.22;;;34.93;37.36
18850;BME280;4989;48.772;9.154;2022-07-25T14:15:59;97348.25;;;34.81;38.20
18850;BME280;4989;48.772;9.154;2022-07-25T14:21:02;97344.41;;;35.52;37.71
18850;BME280;4989;48.772;9.154;2022-07-25T14:26:05;97342.59;;;34.81;39.20
18850;BME280;4989;48.772;9.154;2022-07-25T14:31:07;97352.06;;;34.33;40.92
18850;BME280;4989;48.772;9.154;2022-07-25T14:36:10;97347.69;;;36.76;35.31
18850;BME280;4989;48.772;9.154;2022-07-25T14:41:14;97339.84;;;37.12;34.48
18850;BME280;4989;48.772;9.154;2022-07-25T14:46:16;97341.31;;;36.64;34.30
18850;BME280;4989;48.772;9.154;2022-07-25T14:51:19;97333.94;;;36.12;34.82
18850;BME280;4989;48.772;9.154;2022-07-25T14:56:22;97341.88;;;35.35;38.58
18850;BME280;4989;48.772;9.154;2022-07-25T15:01:25;97336.09;;;35.33;38.00
18850;BME280;4989;48.772;9.154;2022-07-25T15:06:27;97345.28;;;34.79;40.15
18850;BME280;4989;48.772;9.154;2022-07-25T15:11:30;97338.75;;;35.52;35.76
18850;BME280;4989;48.772;9.154;2022-07-25T15:16:33;97342.91;;;34.97;38.63
18850;BME280;4989;48.772;9.154;2022-07-25T15:21:36;97343.31;;;33.88;42.61
18850;BME280;4989;48.772;9.154;2022-07-25T15:26:39;97338.75;;;32.56;44.90
18850;BME280;4989;48.772;9.154;2022-07-25T15:31:42;97348.84;;;32.59;44.09
18850;BME280;4989;48.772;9.154;2022-07-25T15:36:45;97346.63;;;32.31;45.47
18850;BME280;4989;48.772;9.154;2022-07-25T15:41:47;97359.34;;;32.59;45.03
18850;BME280;4989;48.772;9.154;2022-07-25T15:46:50;97349.19;;;32.00;46.81
18850;BME280;4989;48.772;9.154;2022-07-25T15:51:52;97353.13;;;31.42;48.61
18850;BME280;4989;48.772;9.154;2022-07-25T15:56:55;97357.44;;;31.70;47.80
18850;BME280;4989;48.772;9.154;2022-07-25T16:01:57;97358.25;;;31.81;47.54
18850;BME280;4989;48.772;9.154;2022-07-25T16:07:01;97355.28;;;31.34;48.07
18850;BME280;4989;48.772;9.154;2022-07-25T16:12:04;97336.69;;;31.39;48.89
18850;BME280;4989;48.772;9.154;2022-07-25T16:17:07;97345.19;;;31.48;48.70
18850;BME280;4989;48.772;9.154;2022-07-25T16:22:10;97352.13;;;31.30;47.44
18850;BME280;4989;48.772;9.154;2022-07-25T16:27:13;97348.97;;;31.61;46.88
18850;BME280;4989;48.772;9.154;2022-07-25T16:32:15;97351.56;;;31.76;45.72
18850;BME280;4989;48.772;9.154;2022-07-25T16:37:19;97352.75;;;32.00;43.99
18850;BME280;4989;48.772;9.154;2022-07-25T16:42:22;97352.94;;;32.12;45.88
18850;BME280;4989;48.772;9.154;2022-07-25T16:47:24;97354.28;;;31.84;47.16
18850;BME280;4989;48.772;9.154;2022-07-25T16:52:27;97340.75;;;31.73;47.96
18850;BME280;4989;48.772;9.154;2022-07-25T16:57:29;97339.16;;;31.79;45.78
18850;BME280;4989;48.772;9.154;2022-07-25T17:02:32;97356.28;;;32.37;44.62
18850;BME280;4989;48.772;9.154;2022-07-25T17:07:37;97351.38;;;31.91;46.36
18850;BME280;4989;48.772;9.154;2022-07-25T17:12:40;97357.41;;;31.88;47.45
18850;BME280;4989;48.772;9.154;2022-07-25T17:17:42;97355.81;;;31.94;43.55
18850;BME280;4989;48.772;9.154;2022-07-25T17:22:45;97370.28;;;32.18;46.41
18850;BME280;4989;48.772;9.154;2022-07-25T17:27:47;97371.56;;;32.07;45.51
18850;BME280;4989;48.772;9.154;2022-07-25T17:32:50;97367.00;;;31.85;46.75
18850;BME280;4989;48.772;9.154;2022-07-25T17:37:57;97368.22;;;31.64;47.99
18850;BME280;4989;48.772;9.154;2022-07-25T17:43:00;97377.47;;;32.02;43.98
18850;BME280;4989;48.772;9.154;2022-07-25T17:48:03;97367.69;;;31.76;47.32
18850;BME280;4989;48.772;9.154;2022-07-25T17:53:05;97383.53;;;31.19;48.18
18850;BME280;4989;48.772;9.154;2022-07-25T17:58:09;97392.19;;;30.53;50.12
18850;BME280;4989;48.772;9.154;2022-07-25T18:03:12;97397.00;;;30.03;51.72
18850;BME280;4989;48.772;9.154;2022-07-25T18:08:14;97404.50;;;30.00;51.73
18850;BME280;4989;48.772;9.154;2022-07-25T18:13:17;97417.63;;;29.90;52.07
18850;BME280;4989;48.772;9.154;2022-07-25T18:18:20;97432.66;;;29.70;52.88
18850;BME280;4989;48.772;9.154;2022-07-25T18:23:22;97443.06;;;29.84;52.02
18850;BME280;4989;48.772;9.154;2022-07-25T18:28:28;97457.69;;;29.75;52.96
18850;BME280;4989;48.772;9.154;2022-07-25T18:33:30;97462.56;;;29.59;51.65
18850;BME280;4989;48.772;9.154;2022-07-25T18:38:33;97481.78;;;29.71;52.18
18850;BME280;4989;48.772;9.154;2022-07-25T18:43:36;97489.47;;;29.55;52.60
18850;BME280;4989;48.772;9.154;2022-07-25T18:48:41;97497.00;;;29.29;53.33
18850;BME280;4989;48.772;9.154;2022-07-25T18:53:43;97499.81;;;29.21;50.66
18850;BME280;4989;48.772;9.154;2022-07-25T18:58:49;97504.47;;;29.19;50.43
18850;BME280;4989;48.772;9.154;2022-07-25T19:03:52;97531.38;;;29.14;51.26
18850;BME280;4989;48.772;9.154;2022-07-25T19:08:54;97530.81;;;29.24;47.67
18850;BME280;4989;48.772;9.154;2022-07-25T19:13:56;97542.19;;;29.03;49.95
18850;BME280;4989;48.772;9.154;2022-07-25T19:18:59;97552.41;;;29.00;51.68
18850;BME280;4989;48.772;9.154;2022-07-25T19:24:02;97569.41;;;28.87;47.24
18850;BME280;4989;48.772;9.154;2022-07-25T19:29:08;97583.94;;;28.85;48.57
18850;BME280;4989;48.772;9.154;2022-07-25T19:34:10;97590.63;;;28.74;54.24
18850;BME280;4989;48.772;9.154;2022-07-25T19:39:14;97599.22;;;28.76;53.70
18850;BME280;4989;48.772;9.154;2022-07-25T19:44:16;97602.56;;;28.75;53.75
18850;BME280;4989;48.772;9.154;2022-07-25T19:49:19;97607.22;;;28.72;51.61
18850;BME280;4989;48.772;9.154;2022-07-25T19:54:21;97607.41;;;28.67;50.31
18850;BME280;4989;48.772;9.154;2022-07-25T19:59:23;97621.75;;;28.63;54.42
18850;BME280;4989;48.772;9.154;2022-07-25T20:04:25;97635.00;;;28.70;53.66
18850;BME280;4989;48.772;9.154;2022-07-25T20:09:28;97628.66;;;28.70;54.17
18850;BME280;4989;48.772;9.154;2022-07-25T20:14:31;97630.53;;;28.67;53.56
18850;BME280;4989;48.772;9.154;2022-07-25T20:19:34;97641.72;;;28.67;53.81
18850;BME280;4989;48.772;9.154;2022-07-25T20:24:38;97650.63;;;28.58;53.27
18850;BME280;4989;48.772;9.154;2022-07-25T20:29:40;97644.25;;;28.50;49.92
18850;BME280;4989;48.772;9.154;2022-07-25T20:34:43;97650.25;;;28.54;49.75
18850;BME280;4989;48.772;9.154;2022-07-25T20:39:46;97657.34;;;28.55;52.93
18850;BME280;4989;48.772;9.154;2022-07-25T20:44:50;97654.69;;;28.49;53.68
18850;BME280;4989;48.772;9.154;2022-07-25T20:49:52;97652.97;;;28.39;48.86
18850;BME280;4989;48.772;9.154;2022-07-25T20:54:55;97669.31;;;28.35;53.56
18850;BME280;4989;48.772;9.154;2022-07-25T20:59:57;97670.56;;;28.26;49.24
18850;BME280;4989;48.772;9.154;2022-07-25T21:05:00;97678.44;;;28.27;54.08
18850;BME280;4989;48.772;9.154;2022-07-25T21:10:02;97687.41;;;28.34;53.16
18850;BME280;4989;48.772;9.154;2022-07-25T21:15:06;97686.59;;;28.25;50.33
18850;BME280;4989;48.772;9.154;2022-07-25T21:20:11;97687.38;;;27.97;54.11
18850;BME280;4989;48.772;9.154;2022-07-25T21:25:14;97694.69;;;27.79;47.84
18850;BME280;4989;48.772;9.154;2022-07-25T21:30:16;97697.41;;;27.72;47.91
18850;BME280;4989;48.772;9.154;2022-07-25T21:35:19;97706.13;;;27.89;54.62
18850;BME280;4989;48.772;9.154;2022-07-25T21:40:22;97726.03;;;27.85;46.79
18850;BME280;4989;48.772;9.154;2022-07-25T21:45:25;97731.94;;;27.61;49.01
18850;BME280;4989;48.772;9.154;2022-07-25T21:50:32;97747.47;;;27.49;54.29
18850;BME280;4989;48.772;9.154;2022-07-25T21:55:44;97740.19;;;27.46;49.91
18850;BME280;4989;48.772;9.154;2022-07-25T22:00:47;97743.47;;;27.23;47.68
18850;BME280;4989;48.772;9.154;2022-07-25T22:05:49;97750.38;;;26.95;48.30
18850;BME280;4989;48.772;9.154;2022-07-25T22:10:52;97751.94;;;26.70;49.31
18850;BME280;4989;48.772;9.154;2022-07-25T22:15:56;97739.03;;;26.80;51.97
18850;BME280;4989;48.772;9.154;2022-07-25T22:20:58;97748.47;;;26.77;49.36
18850;BME280;4989;48.772;9.154;2022-07-25T22:26:01;97750.00;;;26.78;49.43
18850;BME280;4989;48.772;9.154;2022-07-25T22:31:03;97743.53;;;26.97;56.54
18850;BME280;4989;48.772;9.154;2022-07-25T22:36:06;97739.47;;;27.32;49.46
18850;BME280;4989;48.772;9.154;2022-07-25T22:41:09;97743.22;;;27.34;51.33
18850;BME280;4989;48.772;9.154;2022-07-25T22:46:11;97760.38;;;26.78;49.68
18850;BME280;4989;48.772;9.154;2022-07-25T22:51:17;97779.06;;;26.56;50.16
18850;BME280;4989;48.772;9.154;2022-07-25T22:56:20;97775.72;;;26.98;57.63
18850;BME280;4989;48.772;9.154;2022-07-25T23:01:23;97783.22;;;27.16;50.52
18850;BME280;4989;48.772;9.154;2022-07-25T23:06:26;97796.72;;;27.25;55.34
18850;BME280;4989;48.772;9.154;2022-07-25T23:11:28;97793.06;;;27.30;52.40
18850;BME280;4989;48.772;9.154;2022-07-25T23:16:30;97796.81;;;27.33;53.36
18850;BME280;4989;48.772;9.154;2022-07-25T23:21:33;97809.38;;;27.26;50.26
18850;BME280;4989;48.772;9.154;2022-07-25T23:26:36;97815.28;;;27.23;56.27
18850;BME280;4989;48.772;9.154;2022-07-25T23:31:38;97817.34;;;27.09;50.33
18850;BME280;4989;48.772;9.154;2022-07-25T23:36:41;97825.94;;;26.71;56.06
18850;BME280;4989;48.772;9.154;2022-07-25T23:41:43;97828.41;;;26.61;50.95
18850;BME280;4989;48.772;9.154;2022-07-25T23:46:46;97826.16;;;26.73;57.62
18850;BME280;4989;48.772;9.154;2022-07-25T23:51:49;97838.56;;;26.45;59.07
18850;BME280;4989;48.772;9.154;2022-07-25T23:56:51;97831.22;;;26.88;58.85
